sensor_id;sensor_type;location;lat;lon;timestamp;P1;durP1;ratioP1;P2;durP2;ratioP2
45848;SDS011;31567;54.600;9.842;2023-04-25T00:03:34;13.65;;;2.53;;
45848;SDS011;31567;54.600;9.842;2023-04-25T00:07:14;10.55;;;2.63;;
45848;SDS011;31567;54.600;9.842;2023-04-25T00:10:54;13.27;;;2.40;;
45848;SDS011;31567;54.600;9.842;2023-04-25T00:14:34;23.80;;;4.75;;
45848;SDS011;31567;54.600;9.842;2023-04-25T00:18:14;15.45;;;3.15;;
45848;SDS011;31567;54.600;9.842;2023-04-25T00:21:54;24.02;;;4.15;;
45848;SDS011;31567;54.600;9.842;2023-04-25T00:25:34;19.60;;;4.28;;
45848;SDS011;31567;54.600;9.842;2023-04-25T00:29:14;20.33;;;3.35;;
45848;SDS011;31567;54.600;9.842;2023-04-25T00:32:53;17.73;;;3.47;;
45848;SDS011;31567;54.600;9.842;2023-04-25T00:36:33;16.08;;;3.08;;
45848;SDS011;31567;54.600;9.842;2023-04-25T00:40:13;22.38;;;4.07;;
45848;SDS011;31567;54.600;9.842;2023-04-25T00:43:54;14.32;;;3.78;;
45848;SDS011;31567;54.600;9.842;2023-04-25T00:47:35;14.70;;;3.40;;
45848;SDS011;31567;54.600;9.842;2023-04-25T00:51:19;16.75;;;3.60;;
45848;SDS011;31567;54.600;9.842;2023-04-25T00:54:59;21.08;;;4.80;;
45848;SDS011;31567;54.600;9.842;2023-04-25T00:58:40;12.77;;;3.00;;
45848;SDS011;31567;54.600;9.842;2023-04-25T01:02:20;16.48;;;3.35;;
45848;SDS011;31567;54.600;9.842;2023-04-25T01:06:01;15.90;;;4.03;;
45848;SDS011;31567;54.600;9.842;2023-04-25T01:09:41;15.10;;;2.90;;
45848;SDS011;31567;54.600;9.842;2023-04-25T01:13:21;15.50;;;2.72;;
45848;SDS011;31567;54.600;9.842;2023-04-25T01:17:01;8.40;;;1.88;;
45848;SDS011;31567;54.600;9.842;2023-04-25T01:20:41;18.52;;;3.58;;
45848;SDS011;31567;54.600;9.842;2023-04-25T01:24:21;9.63;;;2.90;;
45848;SDS011;31567;54.600;9.842;2023-04-25T01:28:00;16.02;;;3.00;;
45848;SDS011;31567;54.600;9.842;2023-04-25T01:31:40;9.45;;;2.15;;
45848;SDS011;31567;54.600;9.842;2023-04-25T01:35:20;11.15;;;2.00;;
45848;SDS011;31567;54.600;9.842;2023-04-25T01:39:02;13.80;;;3.75;;
45848;SDS011;31567;54.600;9.842;2023-04-25T01:42:42;14.00;;;3.17;;
45848;SDS011;31567;54.600;9.842;2023-04-25T01:46:23;8.55;;;2.80;;
45848;SDS011;31567;54.600;9.842;2023-04-25T01:50:04;11.60;;;2.88;;
45848;SDS011;31567;54.600;9.842;2023-04-25T01:53:45;17.88;;;3.30;;
45848;SDS011;31567;54.600;9.842;2023-04-25T01:57:24;12.57;;;2.80;;
45848;SDS011;31567;54.600;9.842;2023-04-25T02:01:04;17.70;;;3.25;;
45848;SDS011;31567;54.600;9.842;2023-04-25T02:04:44;19.13;;;3.97;;
45848;SDS011;31567;54.600;9.842;2023-04-25T02:08:23;20.98;;;3.58;;
45848;SDS011;31567;54.600;9.842;2023-04-25T02:12:04;18.13;;;3.38;;
45848;SDS011;31567;54.600;9.842;2023-04-25T02:15:44;15.15;;;3.05;;
45848;SDS011;31567;54.600;9.842;2023-04-25T02:19:24;19.73;;;2.97;;
45848;SDS011;31567;54.600;9.842;2023-04-25T02:23:03;14.90;;;3.25;;
45848;SDS011;31567;54.600;9.842;2023-04-25T02:26:43;11.07;;;2.17;;
45848;SDS011;31567;54.600;9.842;2023-04-25T02:30:23;15.85;;;2.58;;
45848;SDS011;31567;54.600;9.842;2023-04-25T02:34:02;17.08;;;3.13;;
45848;SDS011;31567;54.600;9.842;2023-04-25T02:37:43;17.70;;;3.28;;
45848;SDS011;31567;54.600;9.842;2023-04-25T02:41:22;21.55;;;3.33;;
45848;SDS011;31567;54.600;9.842;2023-04-25T02:45:02;17.80;;;3.70;;
45848;SDS011;31567;54.600;9.842;2023-04-25T02:48:42;19.55;;;2.95;;
45848;SDS011;31567;54.600;9.842;2023-04-25T02:52:22;16.13;;;4.40;;
45848;SDS011;31567;54.600;9.842;2023-04-25T02:56:02;17.45;;;3.50;;
45848;SDS011;31567;54.600;9.842;2023-04-25T02:59:41;17.25;;;3.25;;
45848;SDS011;31567;54.600;9.842;2023-04-25T03:03:21;16.80;;;3.65;;
45848;SDS011;31567;54.600;9.842;2023-04-25T03:07:00;11.07;;;2.72;;
45848;SDS011;31567;54.600;9.842;2023-04-25T03:10:40;19.38;;;3.30;;
45848;SDS011;31567;54.600;9.842;2023-04-25T03:14:20;17.05;;;3.75;;
45848;SDS011;31567;54.600;9.842;2023-04-25T03:17:59;15.30;;;3.47;;
45848;SDS011;31567;54.600;9.842;2023-04-25T03:21:39;16.00;;;4.57;;
45848;SDS011;31567;54.600;9.842;2023-04-25T03:25:18;21.73;;;3.63;;
45848;SDS011;31567;54.600;9.842;2023-04-25T03:28:58;19.15;;;4.47;;
45848;SDS011;31567;54.600;9.842;2023-04-25T03:32:37;17.92;;;3.55;;
45848;SDS011;31567;54.600;9.842;2023-04-25T03:36:17;24.52;;;3.97;;
45848;SDS011;31567;54.600;9.842;2023-04-25T03:39:56;21.05;;;3.53;;
45848;SDS011;31567;54.600;9.842;2023-04-25T03:43:36;16.27;;;3.55;;
45848;SDS011;31567;54.600;9.842;2023-04-25T03:47:15;16.95;;;3.47;;
45848;SDS011;31567;54.600;9.842;2023-04-25T03:50:55;11.93;;;3.03;;
45848;SDS011;31567;54.600;9.842;2023-04-25T03:54:35;13.68;;;3.00;;
45848;SDS011;31567;54.600;9.842;2023-04-25T03:58:14;17.45;;;2.95;;
45848;SDS011;31567;54.600;9.842;2023-04-25T04:01:54;11.48;;;3.03;;
45848;SDS011;31567;54.600;9.842;2023-04-25T04:05:33;12.48;;;3.25;;
45848;SDS011;31567;54.600;9.842;2023-04-25T04:09:13;10.88;;;2.50;;
45848;SDS011;31567;54.600;9.842;2023-04-25T04:12:52;15.15;;;2.80;;
45848;SDS011;31567;54.600;9.842;2023-04-25T04:16:32;18.27;;;2.92;;
45848;SDS011;31567;54.600;9.842;2023-04-25T04:20:12;15.02;;;4.38;;
45848;SDS011;31567;54.600;9.842;2023-04-25T04:23:51;14.20;;;2.75;;
45848;SDS011;31567;54.600;9.842;2023-04-25T04:27:31;15.38;;;2.85;;
45848;SDS011;31567;54.600;9.842;2023-04-25T04:31:11;12.85;;;2.65;;
45848;SDS011;31567;54.600;9.842;2023-04-25T04:34:50;16.58;;;3.03;;
45848;SDS011;31567;54.600;9.842;2023-04-25T04:38:31;14.52;;;2.67;;
45848;SDS011;31567;54.600;9.842;2023-04-25T04:42:11;15.57;;;2.60;;
45848;SDS011;31567;54.600;9.842;2023-04-25T04:45:50;15.38;;;2.50;;
45848;SDS011;31567;54.600;9.842;2023-04-25T04:49:30;13.48;;;2.58;;
45848;SDS011;31567;54.600;9.842;2023-04-25T04:53:09;15.27;;;3.40;;
45848;SDS011;31567;54.600;9.842;2023-04-25T04:56:49;8.85;;;2.58;;
45848;SDS011;31567;54.600;9.842;2023-04-25T05:00:30;15.68;;;2.88;;
45848;SDS011;31567;54.600;9.842;2023-04-25T05:04:09;11.88;;;2.85;;
45848;SDS011;31567;54.600;9.842;2023-04-25T05:07:49;15.63;;;2.67;;
45848;SDS011;31567;54.600;9.842;2023-04-25T05:11:28;12.88;;;2.63;;
45848;SDS011;31567;54.600;9.842;2023-04-25T05:15:08;11.73;;;2.38;;
45848;SDS011;31567;54.600;9.842;2023-04-25T05:18:48;13.68;;;2.60;;
45848;SDS011;31567;54.600;9.842;2023-04-25T05:22:27;8.93;;;1.90;;
45848;SDS011;31567;54.600;9.842;2023-04-25T05:26:07;10.73;;;2.78;;
45848;SDS011;31567;54.600;9.842;2023-04-25T05:29:52;13.38;;;2.33;;
45848;SDS011;31567;54.600;9.842;2023-04-25T05:33:32;18.00;;;2.80;;
45848;SDS011;31567;54.600;9.842;2023-04-25T05:37:11;13.88;;;3.75;;
45848;SDS011;31567;54.600;9.842;2023-04-25T05:40:51;11.93;;;2.17;;
45848;SDS011;31567;54.600;9.842;2023-04-25T05:44:30;12.82;;;2.30;;
45848;SDS011;31567;54.600;9.842;2023-04-25T05:48:10;14.10;;;2.92;;
45848;SDS011;31567;54.600;9.842;2023-04-25T05:51:50;19.33;;;3.00;;
45848;SDS011;31567;54.600;9.842;2023-04-25T05:55:29;10.68;;;2.85;;
45848;SDS011;31567;54.600;9.842;2023-04-25T05:59:09;8.77;;;1.90;;
45848;SDS011;31567;54.600;9.842;2023-04-25T06:02:48;12.55;;;2.33;;
45848;SDS011;31567;54.600;9.842;2023-04-25T06:06:28;11.50;;;1.98;;
45848;SDS011;31567;54.600;9.842;2023-04-25T06:10:08;8.88;;;1.98;;
45848;SDS011;31567;54.600;9.842;2023-04-25T06:13:47;13.90;;;2.92;;
45848;SDS011;31567;54.600;9.842;2023-04-25T06:17:27;12.40;;;3.05;;
45848;SDS011;31567;54.600;9.842;2023-04-25T06:21:07;14.82;;;2.45;;
45848;SDS011;31567;54.600;9.842;2023-04-25T06:24:46;11.95;;;2.30;;
45848;SDS011;31567;54.600;9.842;2023-04-25T06:28:26;12.55;;;3.30;;
45848;SDS011;31567;54.600;9.842;2023-04-25T06:32:05;10.27;;;2.42;;
45848;SDS011;31567;54.600;9.842;2023-04-25T06:35:45;9.75;;;2.33;;
45848;SDS011;31567;54.600;9.842;2023-04-25T06:39:24;14.00;;;3.03;;
45848;SDS011;31567;54.600;9.842;2023-04-25T06:43:04;18.00;;;3.22;;
45848;SDS011;31567;54.600;9.842;2023-04-25T06:46:43;15.57;;;3.28;;
45848;SDS011;31567;54.600;9.842;2023-04-25T06:50:23;14.98;;;3.05;;
45848;SDS011;31567;54.600;9.842;2023-04-25T06:54:03;16.08;;;3.55;;
45848;SDS011;31567;54.600;9.842;2023-04-25T06:57:44;13.82;;;3.60;;
45848;SDS011;31567;54.600;9.842;2023-04-25T07:01:23;16.17;;;2.65;;
45848;SDS011;31567;54.600;9.842;2023-04-25T07:05:03;12.15;;;2.53;;
45848;SDS011;31567;54.600;9.842;2023-04-25T07:08:43;15.73;;;2.83;;
45848;SDS011;31567;54.600;9.842;2023-04-25T07:12:22;15.02;;;3.28;;
45848;SDS011;31567;54.600;9.842;2023-04-25T07:16:02;16.45;;;2.72;;
45848;SDS011;31567;54.600;9.842;2023-04-25T07:19:42;16.00;;;2.58;;
45848;SDS011;31567;54.600;9.842;2023-04-25T07:23:22;14.38;;;3.08;;
45848;SDS011;31567;54.600;9.842;2023-04-25T07:27:02;13.48;;;2.78;;
45848;SDS011;31567;54.600;9.842;2023-04-25T07:30:42;16.05;;;2.45;;
45848;SDS011;31567;54.600;9.842;2023-04-25T07:34:21;12.98;;;2.13;;
45848;SDS011;31567;54.600;9.842;2023-04-25T07:38:01;17.25;;;2.30;;
45848;SDS011;31567;54.600;9.842;2023-04-25T07:41:41;12.25;;;2.42;;
45848;SDS011;31567;54.600;9.842;2023-04-25T07:45:21;12.73;;;2.55;;
45848;SDS011;31567;54.600;9.842;2023-04-25T07:49:01;13.52;;;2.83;;
45848;SDS011;31567;54.600;9.842;2023-04-25T07:52:40;13.75;;;2.15;;
45848;SDS011;31567;54.600;9.842;2023-04-25T07:56:20;10.18;;;2.30;;
45848;SDS011;31567;54.600;9.842;2023-04-25T07:59:59;6.05;;;1.95;;
45848;SDS011;31567;54.600;9.842;2023-04-25T08:03:39;7.72;;;1.48;;
45848;SDS011;31567;54.600;9.842;2023-04-25T08:07:18;11.98;;;2.10;;
45848;SDS011;31567;54.600;9.842;2023-04-25T08:10:58;14.07;;;2.28;;
45848;SDS011;31567;54.600;9.842;2023-04-25T08:14:38;6.15;;;1.80;;
45848;SDS011;31567;54.600;9.842;2023-04-25T08:18:18;7.85;;;1.98;;
45848;SDS011;31567;54.600;9.842;2023-04-25T08:21:58;13.30;;;2.20;;
45848;SDS011;31567;54.600;9.842;2023-04-25T08:25:37;10.45;;;2.10;;
45848;SDS011;31567;54.600;9.842;2023-04-25T08:29:17;8.77;;;2.00;;
45848;SDS011;31567;54.600;9.842;2023-04-25T08:32:56;10.80;;;1.90;;
45848;SDS011;31567;54.600;9.842;2023-04-25T08:36:36;11.70;;;1.92;;
45848;SDS011;31567;54.600;9.842;2023-04-25T08:40:16;13.85;;;2.25;;
45848;SDS011;31567;54.600;9.842;2023-04-25T08:43:56;6.90;;;2.45;;
45848;SDS011;31567;54.600;9.842;2023-04-25T08:47:39;9.95;;;2.88;;
45848;SDS011;31567;54.600;9.842;2023-04-25T08:51:21;17.13;;;3.05;;
45848;SDS011;31567;54.600;9.842;2023-04-25T08:55:03;14.75;;;3.05;;
45848;SDS011;31567;54.600;9.842;2023-04-25T08:58:47;8.50;;;1.75;;
45848;SDS011;31567;54.600;9.842;2023-04-25T09:02:28;10.27;;;2.50;;
45848;SDS011;31567;54.600;9.842;2023-04-25T09:06:09;6.63;;;1.98;;
45848;SDS011;31567;54.600;9.842;2023-04-25T09:09:50;15.07;;;2.53;;
45848;SDS011;31567;54.600;9.842;2023-04-25T09:13:29;8.93;;;1.33;;
45848;SDS011;31567;54.600;9.842;2023-04-25T09:17:09;10.80;;;2.28;;
45848;SDS011;31567;54.600;9.842;2023-04-25T09:20:48;7.25;;;1.52;;
45848;SDS011;31567;54.600;9.842;2023-04-25T09:24:38;8.15;;;1.83;;
45848;SDS011;31567;54.600;9.842;2023-04-25T09:28:25;8.85;;;1.40;;
45848;SDS011;31567;54.600;9.842;2023-04-25T09:36:02;8.15;;;1.80;;
45848;SDS011;31567;54.600;9.842;2023-04-25T09:39:48;13.07;;;2.35;;
45848;SDS011;31567;54.600;9.842;2023-04-25T09:43:29;8.93;;;2.03;;
45848;SDS011;31567;54.600;9.842;2023-04-25T09:47:12;12.30;;;1.52;;
45848;SDS011;31567;54.600;9.842;2023-04-25T09:51:12;16.73;;;3.20;;
45848;SDS011;31567;54.600;9.842;2023-04-25T09:54:52;10.10;;;2.13;;
45848;SDS011;31567;54.600;9.842;2023-04-25T09:58:32;11.65;;;3.22;;
45848;SDS011;31567;54.600;9.842;2023-04-25T10:02:13;12.98;;;1.85;;
45848;SDS011;31567;54.600;9.842;2023-04-25T10:05:55;9.02;;;2.28;;
45848;SDS011;31567;54.600;9.842;2023-04-25T10:09:38;9.50;;;1.60;;
45848;SDS011;31567;54.600;9.842;2023-04-25T10:13:18;8.93;;;2.00;;
45848;SDS011;31567;54.600;9.842;2023-04-25T10:16:58;12.02;;;1.85;;
45848;SDS011;31567;54.600;9.842;2023-04-25T10:20:39;12.18;;;2.30;;
45848;SDS011;31567;54.600;9.842;2023-04-25T10:24:19;11.80;;;2.05;;
45848;SDS011;31567;54.600;9.842;2023-04-25T10:27:59;12.98;;;2.70;;
45848;SDS011;31567;54.600;9.842;2023-04-25T10:31:44;7.57;;;2.00;;
45848;SDS011;31567;54.600;9.842;2023-04-25T10:35:29;12.95;;;2.63;;
45848;SDS011;31567;54.600;9.842;2023-04-25T10:39:10;9.10;;;1.70;;
45848;SDS011;31567;54.600;9.842;2023-04-25T10:42:51;14.40;;;2.08;;
45848;SDS011;31567;54.600;9.842;2023-04-25T10:46:35;11.68;;;2.88;;
45848;SDS011;31567;54.600;9.842;2023-04-25T10:50:15;9.85;;;2.35;;
45848;SDS011;31567;54.600;9.842;2023-04-25T10:57:44;11.65;;;2.42;;
45848;SDS011;31567;54.600;9.842;2023-04-25T11:01:26;6.93;;;1.88;;
45848;SDS011;31567;54.600;9.842;2023-04-25T11:05:05;12.88;;;2.05;;
45848;SDS011;31567;54.600;9.842;2023-04-25T11:08:49;6.70;;;1.50;;
45848;SDS011;31567;54.600;9.842;2023-04-25T11:12:30;13.10;;;2.53;;
45848;SDS011;31567;54.600;9.842;2023-04-25T11:16:10;10.27;;;3.22;;
45848;SDS011;31567;54.600;9.842;2023-04-25T11:19:50;11.65;;;1.80;;
45848;SDS011;31567;54.600;9.842;2023-04-25T11:23:30;11.68;;;2.10;;
45848;SDS011;31567;54.600;9.842;2023-04-25T11:27:10;16.40;;;2.20;;
45848;SDS011;31567;54.600;9.842;2023-04-25T11:30:49;12.70;;;2.75;;
45848;SDS011;31567;54.600;9.842;2023-04-25T11:34:30;11.75;;;2.17;;
45848;SDS011;31567;54.600;9.842;2023-04-25T11:38:10;15.77;;;2.60;;
45848;SDS011;31567;54.600;9.842;2023-04-25T11:41:50;10.10;;;2.25;;
45848;SDS011;31567;54.600;9.842;2023-04-25T11:45:30;16.25;;;2.60;;
45848;SDS011;31567;54.600;9.842;2023-04-25T11:49:12;9.30;;;2.40;;
45848;SDS011;31567;54.600;9.842;2023-04-25T11:52:55;9.90;;;2.25;;
45848;SDS011;31567;54.600;9.842;2023-04-25T11:56:35;11.38;;;2.95;;
45848;SDS011;31567;54.600;9.842;2023-04-25T12:00:16;11.77;;;2.45;;
45848;SDS011;31567;54.600;9.842;2023-04-25T12:03:57;5.97;;;1.48;;
45848;SDS011;31567;54.600;9.842;2023-04-25T12:07:48;9.52;;;2.05;;
45848;SDS011;31567;54.600;9.842;2023-04-25T12:11:28;15.10;;;1.85;;
45848;SDS011;31567;54.600;9.842;2023-04-25T12:18:55;8.73;;;2.05;;
45848;SDS011;31567;54.600;9.842;2023-04-25T12:22:36;9.68;;;2.58;;
45848;SDS011;31567;54.600;9.842;2023-04-25T12:26:17;13.30;;;4.13;;
45848;SDS011;31567;54.600;9.842;2023-04-25T12:29:59;9.10;;;1.83;;
45848;SDS011;31567;54.600;9.842;2023-04-25T12:33:39;8.60;;;1.40;;
45848;SDS011;31567;54.600;9.842;2023-04-25T12:37:20;4.90;;;1.27;;
45848;SDS011;31567;54.600;9.842;2023-04-25T12:40:59;10.63;;;1.73;;
45848;SDS011;31567;54.600;9.842;2023-04-25T12:44:39;10.50;;;2.38;;
45848;SDS011;31567;54.600;9.842;2023-04-25T12:48:19;11.48;;;2.38;;
45848;SDS011;31567;54.600;9.842;2023-04-25T12:51:59;12.23;;;2.20;;
45848;SDS011;31567;54.600;9.842;2023-04-25T12:55:39;7.35;;;1.48;;
45848;SDS011;31567;54.600;9.842;2023-04-25T12:59:19;2.78;;;0.90;;
45848;SDS011;31567;54.600;9.842;2023-04-25T13:03:00;8.00;;;1.92;;
45848;SDS011;31567;54.600;9.842;2023-04-25T13:06:39;13.57;;;2.28;;
45848;SDS011;31567;54.600;9.842;2023-04-25T13:10:19;5.07;;;1.40;;
45848;SDS011;31567;54.600;9.842;2023-04-25T13:13:58;10.02;;;1.55;;
45848;SDS011;31567;54.600;9.842;2023-04-25T13:17:39;9.82;;;1.77;;
45848;SDS011;31567;54.600;9.842;2023-04-25T13:21:19;12.02;;;1.90;;
45848;SDS011;31567;54.600;9.842;2023-04-25T13:24:58;10.13;;;1.60;;
45848;SDS011;31567;54.600;9.842;2023-04-25T13:28:38;11.98;;;1.95;;
45848;SDS011;31567;54.600;9.842;2023-04-25T13:32:19;10.75;;;1.85;;
45848;SDS011;31567;54.600;9.842;2023-04-25T13:36:00;8.32;;;2.13;;
45848;SDS011;31567;54.600;9.842;2023-04-25T13:39:39;10.10;;;1.90;;
45848;SDS011;31567;54.600;9.842;2023-04-25T13:43:19;11.95;;;1.83;;
45848;SDS011;31567;54.600;9.842;2023-04-25T13:47:00;7.43;;;1.35;;
45848;SDS011;31567;54.600;9.842;2023-04-25T13:50:40;8.93;;;2.58;;
45848;SDS011;31567;54.600;9.842;2023-04-25T13:54:19;9.13;;;1.38;;
45848;SDS011;31567;54.600;9.842;2023-04-25T13:57:59;10.40;;;1.63;;
45848;SDS011;31567;54.600;9.842;2023-04-25T14:01:40;12.07;;;1.40;;
45848;SDS011;31567;54.600;9.842;2023-04-25T14:05:20;8.52;;;1.58;;
45848;SDS011;31567;54.600;9.842;2023-04-25T14:08:59;12.82;;;2.38;;
45848;SDS011;31567;54.600;9.842;2023-04-25T14:12:40;17.05;;;2.50;;
45848;SDS011;31567;54.600;9.842;2023-04-25T14:16:19;9.75;;;1.60;;
45848;SDS011;31567;54.600;9.842;2023-04-25T14:19:59;7.45;;;2.20;;
45848;SDS011;31567;54.600;9.842;2023-04-25T14:23:38;9.15;;;1.83;;
45848;SDS011;31567;54.600;9.842;2023-04-25T14:27:19;11.05;;;2.42;;
45848;SDS011;31567;54.600;9.842;2023-04-25T14:30:59;9.30;;;2.30;;
45848;SDS011;31567;54.600;9.842;2023-04-25T14:34:39;10.93;;;2.03;;
45848;SDS011;31567;54.600;9.842;2023-04-25T14:38:19;6.20;;;2.20;;
45848;SDS011;31567;54.600;9.842;2023-04-25T14:42:02;9.77;;;1.98;;
45848;SDS011;31567;54.600;9.842;2023-04-25T14:45:41;10.40;;;1.95;;
45848;SDS011;31567;54.600;9.842;2023-04-25T14:49:21;7.75;;;1.75;;
45848;SDS011;31567;54.600;9.842;2023-04-25T14:53:01;12.77;;;1.50;;
45848;SDS011;31567;54.600;9.842;2023-04-25T14:56:40;8.30;;;1.65;;
45848;SDS011;31567;54.600;9.842;2023-04-25T15:00:20;9.52;;;1.75;;
45848;SDS011;31567;54.600;9.842;2023-04-25T15:04:00;14.27;;;2.20;;
45848;SDS011;31567;54.600;9.842;2023-04-25T15:07:41;9.32;;;1.63;;
45848;SDS011;31567;54.600;9.842;2023-04-25T15:11:21;5.38;;;1.70;;
45848;SDS011;31567;54.600;9.842;2023-04-25T15:15:01;12.85;;;1.65;;
45848;SDS011;31567;54.600;9.842;2023-04-25T15:18:40;8.65;;;1.80;;
45848;SDS011;31567;54.600;9.842;2023-04-25T15:22:20;5.57;;;1.08;;
45848;SDS011;31567;54.600;9.842;2023-04-25T15:26:00;10.93;;;1.85;;
45848;SDS011;31567;54.600;9.842;2023-04-25T15:29:39;10.82;;;1.23;;
45848;SDS011;31567;54.600;9.842;2023-04-25T15:33:19;4.43;;;0.95;;
45848;SDS011;31567;54.600;9.842;2023-04-25T15:36:58;7.03;;;1.50;;
45848;SDS011;31567;54.600;9.842;2023-04-25T15:40:38;3.60;;;0.98;;
45848;SDS011;31567;54.600;9.842;2023-04-25T15:44:18;6.75;;;1.25;;
45848;SDS011;31567;54.600;9.842;2023-04-25T15:47:58;11.18;;;2.00;;
45848;SDS011;31567;54.600;9.842;2023-04-25T15:51:38;6.85;;;2.00;;
45848;SDS011;31567;54.600;9.842;2023-04-25T15:55:17;10.73;;;1.98;;
45848;SDS011;31567;54.600;9.842;2023-04-25T15:58:59;7.97;;;1.67;;
45848;SDS011;31567;54.600;9.842;2023-04-25T16:02:38;8.27;;;1.80;;
45848;SDS011;31567;54.600;9.842;2023-04-25T16:06:19;7.75;;;1.15;;
45848;SDS011;31567;54.600;9.842;2023-04-25T16:09:58;9.85;;;2.28;;
45848;SDS011;31567;54.600;9.842;2023-04-25T16:13:38;5.68;;;1.42;;
45848;SDS011;31567;54.600;9.842;2023-04-25T16:17:18;6.90;;;0.93;;
45848;SDS011;31567;54.600;9.842;2023-04-25T16:20:57;10.55;;;2.60;;
45848;SDS011;31567;54.600;9.842;2023-04-25T16:24:38;10.30;;;1.50;;
45848;SDS011;31567;54.600;9.842;2023-04-25T16:28:17;9.07;;;1.83;;
45848;SDS011;31567;54.600;9.842;2023-04-25T16:31:57;5.65;;;2.05;;
45848;SDS011;31567;54.600;9.842;2023-04-25T16:35:37;5.88;;;1.55;;
45848;SDS011;31567;54.600;9.842;2023-04-25T16:39:16;8.40;;;1.50;;
45848;SDS011;31567;54.600;9.842;2023-04-25T16:42:56;6.50;;;1.10;;
45848;SDS011;31567;54.600;9.842;2023-04-25T16:46:35;7.68;;;1.42;;
45848;SDS011;31567;54.600;9.842;2023-04-25T16:50:15;8.80;;;1.58;;
45848;SDS011;31567;54.600;9.842;2023-04-25T16:53:55;6.55;;;1.30;;
45848;SDS011;31567;54.600;9.842;2023-04-25T16:57:34;6.32;;;1.65;;
45848;SDS011;31567;54.600;9.842;2023-04-25T17:01:15;5.32;;;0.85;;
45848;SDS011;31567;54.600;9.842;2023-04-25T17:04:57;4.32;;;0.98;;
45848;SDS011;31567;54.600;9.842;2023-04-25T17:08:37;4.60;;;1.05;;
45848;SDS011;31567;54.600;9.842;2023-04-25T17:12:17;3.40;;;0.60;;
45848;SDS011;31567;54.600;9.842;2023-04-25T17:15:58;6.78;;;1.05;;
45848;SDS011;31567;54.600;9.842;2023-04-25T17:19:38;6.32;;;1.08;;
45848;SDS011;31567;54.600;9.842;2023-04-25T17:23:17;8.18;;;1.17;;
45848;SDS011;31567;54.600;9.842;2023-04-25T17:26:57;10.18;;;1.30;;
45848;SDS011;31567;54.600;9.842;2023-04-25T17:30:36;7.20;;;1.17;;
45848;SDS011;31567;54.600;9.842;2023-04-25T17:34:16;7.85;;;1.15;;
45848;SDS011;31567;54.600;9.842;2023-04-25T17:37:56;11.82;;;1.40;;
45848;SDS011;31567;54.600;9.842;2023-04-25T17:41:36;7.15;;;1.60;;
45848;SDS011;31567;54.600;9.842;2023-04-25T17:45:16;6.57;;;1.13;;
45848;SDS011;31567;54.600;9.842;2023-04-25T17:48:56;11.82;;;1.50;;
45848;SDS011;31567;54.600;9.842;2023-04-25T17:52:36;5.50;;;1.00;;
45848;SDS011;31567;54.600;9.842;2023-04-25T17:56:16;5.82;;;1.00;;
45848;SDS011;31567;54.600;9.842;2023-04-25T17:59:57;9.00;;;1.35;;
45848;SDS011;31567;54.600;9.842;2023-04-25T18:03:36;9.98;;;1.48;;
45848;SDS011;31567;54.600;9.842;2023-04-25T18:07:18;7.10;;;1.38;;
45848;SDS011;31567;54.600;9.842;2023-04-25T18:10:57;8.18;;;1.30;;
45848;SDS011;31567;54.600;9.842;2023-04-25T18:14:37;6.78;;;1.38;;
45848;SDS011;31567;54.600;9.842;2023-04-25T18:18:17;6.50;;;1.45;;
45848;SDS011;31567;54.600;9.842;2023-04-25T18:22:03;1.42;;;0.47;;
45848;SDS011;31567;54.600;9.842;2023-04-25T18:25:43;4.90;;;1.02;;
45848;SDS011;31567;54.600;9.842;2023-04-25T18:29:24;7.60;;;1.00;;
45848;SDS011;31567;54.600;9.842;2023-04-25T18:33:04;4.22;;;0.60;;
45848;SDS011;31567;54.600;9.842;2023-04-25T18:36:44;9.50;;;1.27;;
45848;SDS011;31567;54.600;9.842;2023-04-25T18:40:23;9.63;;;1.30;;
45848;SDS011;31567;54.600;9.842;2023-04-25T18:44:03;8.80;;;1.00;;
45848;SDS011;31567;54.600;9.842;2023-04-25T18:47:43;10.38;;;1.23;;
45848;SDS011;31567;54.600;9.842;2023-04-25T18:51:24;9.98;;;1.13;;
45848;SDS011;31567;54.600;9.842;2023-04-25T18:55:08;8.25;;;1.65;;
45848;SDS011;31567;54.600;9.842;2023-04-25T18:58:48;10.65;;;1.50;;
45848;SDS011;31567;54.600;9.842;2023-04-25T19:02:29;9.75;;;1.38;;
45848;SDS011;31567;54.600;9.842;2023-04-25T19:06:08;7.05;;;1.48;;
45848;SDS011;31567;54.600;9.842;2023-04-25T19:09:48;6.20;;;1.10;;
45848;SDS011;31567;54.600;9.842;2023-04-25T19:13:28;9.30;;;1.55;;
45848;SDS011;31567;54.600;9.842;2023-04-25T19:17:09;10.18;;;1.63;;
45848;SDS011;31567;54.600;9.842;2023-04-25T19:20:49;9.57;;;1.67;;
45848;SDS011;31567;54.600;9.842;2023-04-25T19:24:29;7.53;;;1.25;;
45848;SDS011;31567;54.600;9.842;2023-04-25T19:28:08;5.45;;;1.23;;
45848;SDS011;31567;54.600;9.842;2023-04-25T19:31:50;6.63;;;1.05;;
45848;SDS011;31567;54.600;9.842;2023-04-25T19:35:31;8.27;;;1.30;;
45848;SDS011;31567;54.600;9.842;2023-04-25T19:39:11;7.20;;;1.02;;
45848;SDS011;31567;54.600;9.842;2023-04-25T19:42:51;8.73;;;1.33;;
45848;SDS011;31567;54.600;9.842;2023-04-25T19:46:30;6.95;;;0.95;;
45848;SDS011;31567;54.600;9.842;2023-04-25T19:50:10;6.57;;;1.15;;
45848;SDS011;31567;54.600;9.842;2023-04-25T19:53:51;8.73;;;0.95;;
45848;SDS011;31567;54.600;9.842;2023-04-25T19:57:31;3.65;;;0.70;;
45848;SDS011;31567;54.600;9.842;2023-04-25T20:01:12;5.03;;;1.13;;
45848;SDS011;31567;54.600;9.842;2023-04-25T20:04:52;6.50;;;1.08;;
45848;SDS011;31567;54.600;9.842;2023-04-25T20:08:33;8.38;;;1.33;;
45848;SDS011;31567;54.600;9.842;2023-04-25T20:12:13;7.50;;;0.90;;
45848;SDS011;31567;54.600;9.842;2023-04-25T20:15:53;6.82;;;0.85;;
45848;SDS011;31567;54.600;9.842;2023-04-25T20:19:32;4.43;;;1.15;;
45848;SDS011;31567;54.600;9.842;2023-04-25T20:23:13;7.15;;;0.85;;
45848;SDS011;31567;54.600;9.842;2023-04-25T20:26:53;4.88;;;0.80;;
45848;SDS011;31567;54.600;9.842;2023-04-25T20:30:34;7.28;;;0.95;;
45848;SDS011;31567;54.600;9.842;2023-04-25T20:34:14;8.57;;;1.27;;
45848;SDS011;31567;54.600;9.842;2023-04-25T20:37:53;5.97;;;1.25;;
45848;SDS011;31567;54.600;9.842;2023-04-25T20:41:33;7.40;;;1.42;;
45848;SDS011;31567;54.600;9.842;2023-04-25T20:45:13;10.63;;;2.65;;
45848;SDS011;31567;54.600;9.842;2023-04-25T20:48:53;6.38;;;0.95;;
45848;SDS011;31567;54.600;9.842;2023-04-25T20:52:33;5.00;;;0.88;;
45848;SDS011;31567;54.600;9.842;2023-04-25T20:56:13;9.98;;;1.33;;
45848;SDS011;31567;54.600;9.842;2023-04-25T20:59:53;6.03;;;0.93;;
45848;SDS011;31567;54.600;9.842;2023-04-25T21:03:32;5.38;;;1.40;;
45848;SDS011;31567;54.600;9.842;2023-04-25T21:07:13;8.43;;;1.23;;
45848;SDS011;31567;54.600;9.842;2023-04-25T21:10:52;7.65;;;1.30;;
45848;SDS011;31567;54.600;9.842;2023-04-25T21:14:32;6.32;;;1.10;;
45848;SDS011;31567;54.600;9.842;2023-04-25T21:18:12;6.57;;;0.80;;
45848;SDS011;31567;54.600;9.842;2023-04-25T21:21:51;6.22;;;1.10;;
45848;SDS011;31567;54.600;9.842;2023-04-25T21:25:31;6.63;;;1.10;;
45848;SDS011;31567;54.600;9.842;2023-04-25T21:29:10;8.90;;;1.50;;
45848;SDS011;31567;54.600;9.842;2023-04-25T21:32:50;7.57;;;1.45;;
45848;SDS011;31567;54.600;9.842;2023-04-25T21:36:30;8.98;;;1.50;;
45848;SDS011;31567;54.600;9.842;2023-04-25T21:40:11;7.25;;;1.38;;
45848;SDS011;31567;54.600;9.842;2023-04-25T21:43:52;9.57;;;1.42;;
45848;SDS011;31567;54.600;9.842;2023-04-25T21:47:31;8.57;;;1.38;;
45848;SDS011;31567;54.600;9.842;2023-04-25T21:51:11;19.63;;;3.38;;
45848;SDS011;31567;54.600;9.842;2023-04-25T21:54:51;6.97;;;1.30;;
45848;SDS011;31567;54.600;9.842;2023-04-25T21:58:31;9.07;;;1.42;;
45848;SDS011;31567;54.600;9.842;2023-04-25T22:02:11;8.57;;;1.75;;
45848;SDS011;31567;54.600;9.842;2023-04-25T22:05:50;9.10;;;1.60;;
45848;SDS011;31567;54.600;9.842;2023-04-25T22:09:30;9.77;;;1.60;;